Time;durP1;ratioP1;P1;durP2;ratioP2;P2;SDS_P1;SDS_P2;PMS_P1;PMS_P2;Temp;Humidity;BMP_temperature;BMP_pressure;BME280_temperature;BME280_humidity;BME280_pressure;Samples;Min_cycle;Max_cycle;Signal;HPM_P1;HPM_P2
2023/09/25 00:04:11;;;;;;;11.95;4.38;;;;;;;;;;10421869;28;20089;-80
2023/09/25 00:09:12;;;;;;;15.65;4.57;;;;;;;;;;10440100;28;20586;-80
2023/09/25 00:14:13;;;;;;;17.43;4.50;;;;;;;;;;10442063;28;20381;-81
2023/09/25 00:19:14;;;;;;;12.32;4.40;;;;;;;;;;10436860;28;20052;-82
2023/09/25 00:24:14;;;;;;;17.40;4.43;;;;;;;;;;10437077;28;20108;-81
2023/09/25 00:29:14;;;;;;;9.85;4.28;;;;;;;;;;10437586;28;20335;-79
2023/09/25 00:34:14;;;;;;;12.23;4.68;;;;;;;;;;10438089;28;20025;-79
2023/09/25 00:39:15;;;;;;;16.52;4.82;;;;;;;;;;10440724;28;20444;-82
2023/09/25 00:44:19;;;;;;;10.75;4.40;;;;;;;;;;10441975;28;20021;-79
2023/09/25 00:49:23;;;;;;;14.20;4.85;;;;;;;;;;10456067;28;20021;-85
2023/09/25 00:54:24;;;;;;;13.35;5.40;;;;;;;;;;10448266;28;20033;-75
2023/09/25 00:59:27;;;;;;;9.27;4.78;;;;;;;;;;10465700;28;20423;-71
2023/09/25 01:04:28;;;;;;;12.27;4.00;;;;;;;;;;10462085;28;20029;-73
2023/09/25 01:09:29;;;;;;;11.43;4.55;;;;;;;;;;10461760;28;20028;-79
2023/09/25 01:14:29;;;;;;;9.07;4.53;;;;;;;;;;10454833;28;20558;-79
2023/09/25 01:19:31;;;;;;;9.90;4.40;;;;;;;;;;10444999;28;20017;-80
2023/09/25 01:24:31;;;;;;;9.80;4.80;;;;;;;;;;10430638;28;20044;-76
2023/09/25 01:29:31;;;;;;;18.77;5.67;;;;;;;;;;10430662;28;20049;-74
2023/09/25 01:34:32;;;;;;;15.10;5.03;;;;;;;;;;10428777;28;20024;-82
2023/09/25 01:39:32;;;;;;;12.68;4.45;;;;;;;;;;10443606;28;20043;-80
2023/09/25 01:44:32;;;;;;;7.85;4.13;;;;;;;;;;10424562;28;20115;-78
2023/09/25 01:49:33;;;;;;;17.25;5.30;;;;;;;;;;10428861;28;20458;-85
2023/09/25 01:54:34;;;;;;;9.53;4.47;;;;;;;;;;10442845;28;20113;-83
2023/09/25 01:59:35;;;;;;;7.85;4.07;;;;;;;;;;10438574;28;20031;-75
2023/09/25 02:04:35;;;;;;;6.73;3.30;;;;;;;;;;10423466;28;20023;-81
2023/09/25 02:09:36;;;;;;;6.30;3.95;;;;;;;;;;10401731;28;20266;-76
2023/09/25 02:14:36;;;;;;;11.85;4.72;;;;;;;;;;10432034;28;20494;-78
2023/09/25 02:19:36;;;;;;;14.63;5.73;;;;;;;;;;10423560;28;20032;-76
2023/09/25 02:24:38;;;;;;;7.37;4.30;;;;;;;;;;10435997;28;20256;-76
2023/09/25 02:29:39;;;;;;;9.52;4.65;;;;;;;;;;10421695;28;20160;-76
2023/09/25 02:34:39;;;;;;;6.47;4.32;;;;;;;;;;10421185;28;20017;-82
2023/09/25 02:39:39;;;;;;;6.37;3.80;;;;;;;;;;10421601;28;20026;-76
2023/09/25 02:44:40;;;;;;;7.78;4.50;;;;;;;;;;10443802;28;20086;-81
2023/09/25 02:49:41;;;;;;;13.25;6.03;;;;;;;;;;10435678;28;20017;-77
2023/09/25 02:54:42;;;;;;;11.65;6.47;;;;;;;;;;10438618;28;20480;-81
2023/09/25 02:59:42;;;;;;;13.63;6.40;;;;;;;;;;10424914;28;20027;-81
2023/09/25 03:04:43;;;;;;;12.65;6.32;;;;;;;;;;10411034;28;20486;-77
2023/09/25 03:09:43;;;;;;;13.40;7.07;;;;;;;;;;10439653;28;20028;-81
2023/09/25 03:14:43;;;;;;;13.40;6.55;;;;;;;;;;10440349;28;20028;-77
2023/09/25 03:19:45;;;;;;;16.27;8.10;;;;;;;;;;10437444;28;20017;-79
2023/09/25 03:24:45;;;;;;;13.55;8.75;;;;;;;;;;10450450;28;20005;-72
2023/09/25 03:29:46;;;;;;;46.00;40.95;;;;;;;;;;10456578;28;20583;-77
2023/09/25 03:34:48;;;;;;;15.13;9.77;;;;;;;;;;10438229;28;20037;-76
2023/09/25 03:39:48;;;;;;;114.60;105.35;;;;;;;;;;10445224;28;20116;-80
2023/09/25 03:44:55;;;;;;;16.73;9.80;;;;;;;;;;10445038;28;20013;-77
2023/09/25 03:49:55;;;;;;;227.05;211.07;;;;;;;;;;10451581;28;20033;-79
2023/09/25 03:54:56;;;;;;;221.15;206.70;;;;;;;;;;10439582;28;20503;-78
2023/09/25 03:59:56;;;;;;;38.10;32.50;;;;;;;;;;10448722;28;20062;-74
2023/09/25 04:04:56;;;;;;;20.60;11.00;;;;;;;;;;10435925;28;20029;-77
2023/09/25 04:09:57;;;;;;;20.08;10.85;;;;;;;;;;10416616;28;20037;-76
2023/09/25 04:14:57;;;;;;;20.97;11.40;;;;;;;;;;10436051;28;20470;-75
2023/09/25 04:19:57;;;;;;;25.17;12.13;;;;;;;;;;10435908;28;20029;-81
2023/09/25 04:24:59;;;;;;;95.47;87.07;;;;;;;;;;10441007;28;20252;-83
2023/09/25 04:29:59;;;;;;;40.42;26.65;;;;;;;;;;10445151;28;20063;-80
2023/09/25 04:34:59;;;;;;;268.40;244.15;;;;;;;;;;10434854;28;20027;-76
2023/09/25 04:40:00;;;;;;;27.20;14.67;;;;;;;;;;10439805;28;20483;-81
2023/09/25 04:45:00;;;;;;;28.65;15.32;;;;;;;;;;10438919;28;20503;-78
2023/09/25 04:50:00;;;;;;;28.00;15.35;;;;;;;;;;10438521;28;20025;-81
2023/09/25 04:55:03;;;;;;;28.23;13.52;;;;;;;;;;10419369;28;20021;-75
2023/09/25 05:05:20;;;;;;;27.52;14.60;;;;;;;;;;10445220;28;20432;-84
2023/09/25 05:10:24;;;;;;;26.95;14.52;;;;;;;;;;10427079;28;20031;-83
2023/09/25 05:15:25;;;;;;;35.40;18.15;;;;;;;;;;10440237;28;20476;-76
2023/09/25 05:20:26;;;;;;;26.92;16.63;;;;;;;;;;10441215;28;20361;-80
2023/09/25 05:25:26;;;;;;;31.00;15.55;;;;;;;;;;10445013;28;20033;-81
2023/09/25 05:30:27;;;;;;;30.40;15.37;;;;;;;;;;10444606;28;20049;-79
2023/09/25 05:35:27;;;;;;;24.85;13.68;;;;;;;;;;10444991;28;20558;-79
2023/09/25 05:40:27;;;;;;;27.48;13.43;;;;;;;;;;10440375;28;20080;-75
2023/09/25 05:45:29;;;;;;;20.15;11.88;;;;;;;;;;10440415;28;20032;-83
2023/09/25 05:50:33;;;;;;;22.10;12.02;;;;;;;;;;10426634;28;20021;-82
2023/09/25 05:55:34;;;;;;;23.90;11.85;;;;;;;;;;10428701;28;20098;-85
2023/09/25 06:00:37;;;;;;;19.10;9.30;;;;;;;;;;10438069;28;20027;-86
2023/09/25 06:05:38;;;;;;;18.70;10.40;;;;;;;;;;10426943;28;20024;-78
2023/09/25 06:10:39;;;;;;;17.23;10.35;;;;;;;;;;10444283;28;20083;-83
2023/09/25 06:15:41;;;;;;;16.08;9.45;;;;;;;;;;10443087;28;20035;-78
2023/09/25 06:20:43;;;;;;;16.33;9.75;;;;;;;;;;10440273;28;20031;-81
2023/09/25 06:25:47;;;;;;;17.67;9.07;;;;;;;;;;10425608;28;20533;-77
2023/09/25 06:30:47;;;;;;;21.38;10.60;;;;;;;;;;10451659;28;20067;-79
2023/09/25 06:35:48;;;;;;;22.58;10.32;;;;;;;;;;10460325;28;20043;-80
2023/09/25 06:40:50;;;;;;;19.17;10.02;;;;;;;;;;10462096;28;20051;-83
2023/09/25 06:45:51;;;;;;;18.33;10.23;;;;;;;;;;10457403;28;20021;-75
2023/09/25 06:50:51;;;;;;;14.43;9.82;;;;;;;;;;10456258;28;20085;-83
2023/09/25 06:55:52;;;;;;;16.30;9.68;;;;;;;;;;10450367;28;20634;-82
2023/09/25 07:00:52;;;;;;;21.75;10.45;;;;;;;;;;10437904;28;20522;-75
2023/09/25 07:05:53;;;;;;;22.02;11.27;;;;;;;;;;10438566;28;20039;-79
2023/09/25 07:10:53;;;;;;;15.93;10.10;;;;;;;;;;10438039;28;20397;-79
2023/09/25 07:16:02;;;;;;;21.07;10.23;;;;;;;;;;10436986;28;20526;-75
2023/09/25 07:21:02;;;;;;;20.50;10.63;;;;;;;;;;10420848;28;20017;-80
2023/09/25 07:26:04;;;;;;;18.52;10.27;;;;;;;;;;10438104;28;20016;-78
2023/09/25 07:31:05;;;;;;;15.80;9.20;;;;;;;;;;10418873;28;20055;-76
2023/09/25 07:36:08;;;;;;;24.63;10.75;;;;;;;;;;10449078;28;20035;-82
2023/09/25 07:41:12;;;;;;;18.60;10.50;;;;;;;;;;10424571;28;20044;-83
2023/09/25 07:46:12;;;;;;;14.30;7.80;;;;;;;;;;10436375;28;20522;-76
2023/09/25 07:51:12;;;;;;;10.65;7.25;;;;;;;;;;10443775;28;20028;-81
2023/09/25 07:56:13;;;;;;;6.83;4.63;;;;;;;;;;10442466;28;20135;-82
2023/09/25 08:01:14;;;;;;;11.50;5.00;;;;;;;;;;10455131;28;20075;-85
2023/09/25 08:06:15;;;;;;;8.52;5.28;;;;;;;;;;10445653;28;20016;-79
2023/09/25 08:11:17;;;;;;;11.23;6.07;;;;;;;;;;10440585;28;20022;-81
2023/09/25 08:16:18;;;;;;;11.93;5.35;;;;;;;;;;10441091;28;20415;-81
2023/09/25 08:21:20;;;;;;;10.88;5.13;;;;;;;;;;10445387;28;20387;-78
2023/09/25 08:26:21;;;;;;;7.95;4.60;;;;;;;;;;10443555;28;20021;-76
2023/09/25 08:31:21;;;;;;;11.32;5.07;;;;;;;;;;10461086;28;20263;-81
2023/09/25 08:36:23;;;;;;;13.07;4.85;;;;;;;;;;10431731;28;20470;-81
2023/09/25 08:41:24;;;;;;;6.75;3.67;;;;;;;;;;10446824;28;20039;-81
2023/09/25 08:46:25;;;;;;;5.75;4.10;;;;;;;;;;10445498;28;20032;-81
2023/09/25 08:51:26;;;;;;;6.25;3.72;;;;;;;;;;10430864;28;20044;-75
2023/09/25 08:56:28;;;;;;;5.65;4.38;;;;;;;;;;10408930;28;20429;-76
2023/09/25 09:01:28;;;;;;;7.82;4.72;;;;;;;;;;10439219;28;20028;-78
2023/09/25 09:06:29;;;;;;;10.65;4.75;;;;;;;;;;10424735;28;20079;-78
2023/09/25 09:11:29;;;;;;;8.90;4.53;;;;;;;;;;10440758;28;20029;-75
2023/09/25 09:16:29;;;;;;;8.25;4.18;;;;;;;;;;10441907;28;20028;-76
2023/09/25 09:21:30;;;;;;;11.07;4.78;;;;;;;;;;10441776;28;20040;-76
2023/09/25 09:26:30;;;;;;;8.45;4.85;;;;;;;;;;10441214;28;20459;-82
2023/09/25 09:31:31;;;;;;;9.20;4.17;;;;;;;;;;10440705;28;20060;-81
2023/09/25 09:36:32;;;;;;;13.15;4.45;;;;;;;;;;10439327;28;20446;-81
2023/09/25 09:41:33;;;;;;;14.75;4.57;;;;;;;;;;10451982;28;20039;-83
2023/09/25 09:46:35;;;;;;;10.75;3.80;;;;;;;;;;10442993;28;20497;-76
2023/09/25 09:51:35;;;;;;;5.25;3.33;;;;;;;;;;10436174;28;20099;-82
2023/09/25 09:56:35;;;;;;;8.00;3.37;;;;;;;;;;10456594;28;20127;-83
2023/09/25 10:01:36;;;;;;;11.52;3.50;;;;;;;;;;10474129;28;20100;-81
2023/09/25 10:07:12;;;;;;;10.77;3.35;;;;;;;;;;10437219;28;20020;-80
2023/09/25 10:12:12;;;;;;;10.55;3.50;;;;;;;;;;10359749;28;20126;-76
2023/09/25 10:17:13;;;;;;;8.88;3.00;;;;;;;;;;10438319;28;20098;-77
2023/09/25 10:22:18;;;;;;;4.03;3.20;;;;;;;;;;10440123;28;20037;-83
2023/09/25 10:27:18;;;;;;;8.05;2.67;;;;;;;;;;10423373;28;20476;-75
2023/09/25 10:32:29;;;;;;;5.77;3.20;;;;;;;;;;10438919;28;20032;-77
2023/09/25 10:37:30;;;;;;;6.40;2.80;;;;;;;;;;10439898;28;20020;-84
2023/09/25 10:42:30;;;;;;;4.82;2.67;;;;;;;;;;10422766;28;20029;-81
2023/09/25 10:47:31;;;;;;;6.82;2.72;;;;;;;;;;10441407;28;20461;-79
2023/09/25 10:52:31;;;;;;;9.10;2.63;;;;;;;;;;10421869;28;20680;-76
2023/09/25 10:57:31;;;;;;;5.50;3.10;;;;;;;;;;10437675;28;20503;-79
2023/09/25 11:02:34;;;;;;;3.22;2.92;;;;;;;;;;10438034;28;20025;-80
2023/09/25 11:07:36;;;;;;;8.27;3.70;;;;;;;;;;10420387;28;20033;-83
2023/09/25 11:12:37;;;;;;;10.25;3.85;;;;;;;;;;10437880;28;20554;-79
2023/09/25 11:17:43;;;;;;;6.10;3.47;;;;;;;;;;10438546;28;20024;-80
2023/09/25 11:22:49;;;;;;;11.48;3.53;;;;;;;;;;10421982;28;20017;-82
2023/09/25 11:28:12;;;;;;;10.20;3.83;;;;;;;;;;10440745;28;20142;-80
2023/09/25 11:33:15;;;;;;;5.15;3.63;;;;;;;;;;10436712;28;20025;-75
2023/09/25 11:38:18;;;;;;;3.85;3.15;;;;;;;;;;10437382;28;20031;-79
2023/09/25 11:43:25;;;;;;;8.57;3.75;;;;;;;;;;10421291;28;20693;-80
2023/09/25 11:48:26;;;;;;;10.85;4.18;;;;;;;;;;10424827;28;20115;-80
2023/09/25 11:53:27;;;;;;;12.13;4.10;;;;;;;;;;10440904;28;20621;-81
2023/09/25 11:58:31;;;;;;;9.40;3.83;;;;;;;;;;10419946;28;20041;-80
2023/09/25 12:03:38;;;;;;;14.45;5.57;;;;;;;;;;10444923;28;20024;-76
2023/09/25 12:08:38;;;;;;;13.77;6.07;;;;;;;;;;10435409;28;20439;-79
2023/09/25 12:13:39;;;;;;;16.93;7.00;;;;;;;;;;10437648;28;20037;-77
2023/09/25 12:18:39;;;;;;;11.32;6.03;;;;;;;;;;10435054;28;21233;-80
2023/09/25 12:23:39;;;;;;;11.23;6.55;;;;;;;;;;10418434;28;20052;-75
2023/09/25 12:28:41;;;;;;;17.02;7.28;;;;;;;;;;10435766;28;20056;-78
2023/09/25 12:33:42;;;;;;;17.48;8.25;;;;;;;;;;10419749;28;20029;-77
2023/09/25 12:38:44;;;;;;;15.68;7.82;;;;;;;;;;10435785;28;20647;-79
2023/09/25 12:43:44;;;;;;;16.63;7.85;;;;;;;;;;10426777;28;20044;-79
2023/09/25 12:48:44;;;;;;;10.70;7.05;;;;;;;;;;10429542;28;20112;-82
2023/09/25 12:53:46;;;;;;;14.10;7.38;;;;;;;;;;10447968;28;20037;-82
2023/09/25 12:58:47;;;;;;;16.33;8.10;;;;;;;;;;10429780;28;20557;-80
2023/09/25 13:03:48;;;;;;;16.95;7.75;;;;;;;;;;10445653;28;20140;-81
2023/09/25 13:08:48;;;;;;;14.63;7.25;;;;;;;;;;10431706;28;20074;-78
2023/09/25 13:13:48;;;;;;;13.30;6.90;;;;;;;;;;10452453;28;20028;-76
2023/09/25 13:18:48;;;;;;;10.45;6.35;;;;;;;;;;10425627;28;20488;-77
2023/09/25 13:23:49;;;;;;;17.55;7.25;;;;;;;;;;10442744;28;20059;-78
2023/09/25 13:28:49;;;;;;;12.67;6.37;;;;;;;;;;10455676;28;20057;-79
2023/09/25 13:33:50;;;;;;;15.52;7.40;;;;;;;;;;10430771;28;20478;-79
2023/09/25 13:38:50;;;;;;;15.07;6.32;;;;;;;;;;10444580;28;20389;-78
2023/09/25 13:43:50;;;;;;;19.45;6.22;;;;;;;;;;10417007;28;20036;-81
2023/09/25 13:48:51;;;;;;;17.75;6.97;;;;;;;;;;10401324;28;20029;-81
2023/09/25 13:53:58;;;;;;;11.70;5.75;;;;;;;;;;10404650;28;20029;-77
2023/09/25 13:58:58;;;;;;;;;;;;;;;;;;10414648;28;20052;-83
2023/09/25 14:04:01;;;;;;;17.10;6.70;;;;;;;;;;10423241;28;19913;-78
2023/09/25 14:09:01;;;;;;;9.43;5.80;;;;;;;;;;10410408;28;20519;-76
2023/09/25 14:14:08;;;;;;;12.15;7.13;;;;;;;;;;10421924;28;20060;-83
2023/09/25 14:19:08;;;;;;;12.00;5.33;;;;;;;;;;10429691;28;20041;-80
2023/09/25 14:24:08;;;;;;;12.70;6.00;;;;;;;;;;10411287;28;20029;-75
2023/09/25 14:29:10;;;;;;;13.23;5.43;;;;;;;;;;10413364;28;20432;-78
2023/09/25 14:34:11;;;;;;;15.27;6.07;;;;;;;;;;10413829;28;20033;-78
2023/09/25 14:39:14;;;;;;;11.50;5.43;;;;;;;;;;10415119;28;20079;-85
2023/09/25 14:44:14;;;;;;;8.77;6.20;;;;;;;;;;10410015;28;20052;-76
2023/09/25 14:49:14;;;;;;;12.10;6.03;;;;;;;;;;10405732;28;20032;-75
2023/09/25 14:54:14;;;;;;;13.68;5.90;;;;;;;;;;10415735;28;20033;-78
2023/09/25 14:59:15;;;;;;;10.23;5.72;;;;;;;;;;10429493;28;20043;-81
2023/09/25 15:04:18;;;;;;;14.25;6.85;;;;;;;;;;10413154;28;20396;-71
2023/09/25 15:09:18;;;;;;;17.58;6.55;;;;;;;;;;10416847;28;20064;-77
2023/09/25 15:14:20;;;;;;;11.40;6.40;;;;;;;;;;10413879;28;20028;-81
2023/09/25 15:19:23;;;;;;;23.38;6.95;;;;;;;;;;10422207;28;20134;-79
2023/09/25 15:24:23;;;;;;;12.30;6.13;;;;;;;;;;10398701;28;20478;-76
2023/09/25 15:29:24;;;;;;;7.93;5.88;;;;;;;;;;10413214;28;20049;-79
2023/09/25 15:34:25;;;;;;;20.08;5.80;;;;;;;;;;10411601;28;20494;-76
2023/09/25 15:39:30;;;;;;;23.73;7.20;;;;;;;;;;10412442;28;20036;-82
2023/09/25 15:44:31;;;;;;;11.18;6.50;;;;;;;;;;10406377;28;20038;-75
2023/09/25 15:49:33;;;;;;;9.50;5.85;;;;;;;;;;10409218;28;20052;-79
2023/09/25 15:54:33;;;;;;;8.45;5.70;;;;;;;;;;10413461;28;20033;-76
2023/09/25 15:59:37;;;;;;;13.77;5.80;;;;;;;;;;10400879;28;20041;-77
2023/09/25 16:04:37;;;;;;;12.05;7.25;;;;;;;;;;10407430;28;20412;-77
2023/09/25 16:09:38;;;;;;;8.93;5.87;;;;;;;;;;10414389;28;20037;-80
2023/09/25 16:14:38;;;;;;;10.25;6.75;;;;;;;;;;10406239;28;20029;-76
2023/09/25 16:19:41;;;;;;;17.27;6.75;;;;;;;;;;10421944;28;20033;-77
2023/09/25 16:24:43;;;;;;;14.77;6.50;;;;;;;;;;10426523;28;20029;-80
2023/09/25 16:29:43;;;;;;;15.32;6.80;;;;;;;;;;10429624;28;20069;-72
2023/09/25 16:34:44;;;;;;;16.27;7.75;;;;;;;;;;10441379;28;20036;-69
2023/09/25 16:39:45;;;;;;;14.70;6.40;;;;;;;;;;10460023;28;20094;-68
2023/09/25 16:44:47;;;;;;;14.38;5.82;;;;;;;;;;10428895;28;20051;-69
2023/09/25 16:49:47;;;;;;;11.48;6.00;;;;;;;;;;10444118;28;20048;-70
2023/09/25 16:54:47;;;;;;;9.52;6.22;;;;;;;;;;10421438;28;20044;-77
2023/09/25 16:59:51;;;;;;;12.75;5.78;;;;;;;;;;10404034;28;20069;-74
2023/09/25 17:04:53;;;;;;;15.73;6.97;;;;;;;;;;10415476;28;20044;-75
2023/09/25 17:09:53;;;;;;;10.77;6.40;;;;;;;;;;10411209;28;20051;-74
2023/09/25 17:14:54;;;;;;;10.20;6.38;;;;;;;;;;10418450;28;20540;-77
2023/09/25 17:19:54;;;;;;;8.30;5.82;;;;;;;;;;10426196;28;20026;-76
2023/09/25 17:24:55;;;;;;;15.40;6.32;;;;;;;;;;10432259;28;20029;-82
2023/09/25 17:29:58;;;;;;;14.52;6.72;;;;;;;;;;10423431;28;20129;-75
2023/09/25 17:35:00;;;;;;;17.73;6.63;;;;;;;;;;10430715;28;20025;-76
2023/09/25 17:40:02;;;;;;;9.82;6.85;;;;;;;;;;10408165;28;20032;-80
2023/09/25 17:45:04;;;;;;;14.80;6.78;;;;;;;;;;10411492;28;20047;-77
2023/09/25 17:50:07;;;;;;;10.35;6.18;;;;;;;;;;10412337;28;20021;-78
2023/09/25 17:55:08;;;;;;;12.63;6.72;;;;;;;;;;10411829;28;20108;-76
2023/09/25 18:00:08;;;;;;;12.55;7.68;;;;;;;;;;10419233;28;20029;-80
2023/09/25 18:05:09;;;;;;;10.88;6.65;;;;;;;;;;10429616;28;20930;-81
2023/09/25 18:10:10;;;;;;;19.13;6.45;;;;;;;;;;10418333;28;20029;-77
2023/09/25 18:15:10;;;;;;;8.63;5.97;;;;;;;;;;10411693;28;20761;-79
2023/09/25 18:20:12;;;;;;;15.45;6.22;;;;;;;;;;10420134;28;20337;-76
2023/09/25 18:25:12;;;;;;;16.08;6.25;;;;;;;;;;10409437;28;20033;-79
2023/09/25 18:30:13;;;;;;;10.80;6.30;;;;;;;;;;10412909;28;20427;-78
2023/09/25 18:35:13;;;;;;;11.98;6.68;;;;;;;;;;10414193;28;20035;-80
2023/09/25 18:40:13;;;;;;;14.90;6.53;;;;;;;;;;10390463;28;20033;-76
2023/09/25 18:45:14;;;;;;;9.27;5.25;;;;;;;;;;10403978;28;20099;-75
2023/09/25 18:50:14;;;;;;;10.73;6.03;;;;;;;;;;10401124;28;20028;-75
2023/09/25 18:55:15;;;;;;;11.40;5.50;;;;;;;;;;10478877;22;20056;-73
2023/09/25 19:00:15;;;;;;;10.98;6.13;;;;;;;;;;10434780;28;20020;-73
2023/09/25 19:05:15;;;;;;;9.80;6.60;;;;;;;;;;10469308;28;20028;-73
2023/09/25 19:10:16;;;;;;;12.52;6.22;;;;;;;;;;10453753;28;20041;-74
2023/09/25 19:15:16;;;;;;;8.27;5.87;;;;;;;;;;10476633;28;20031;-81
2023/09/25 19:20:16;;;;;;;12.70;5.73;;;;;;;;;;10456997;28;20078;-77
2023/09/25 19:25:17;;;;;;;27.70;7.57;;;;;;;;;;10459501;28;20392;-77
2023/09/25 19:30:17;;;;;;;8.52;5.88;;;;;;;;;;10469020;28;20517;-82
2023/09/25 19:35:17;;;;;;;9.55;6.07;;;;;;;;;;10453452;28;20035;-78
2023/09/25 19:40:18;;;;;;;7.65;5.53;;;;;;;;;;10484405;28;20020;-72
2023/09/25 19:45:18;;;;;;;15.40;8.00;;;;;;;;;;10478537;28;20028;-72
2023/09/25 19:50:18;;;;;;;16.47;6.20;;;;;;;;;;10472097;28;20031;-77
2023/09/25 19:55:21;;;;;;;19.08;5.32;;;;;;;;;;10483138;28;20682;-79
2023/09/25 20:00:21;;;;;;;8.27;5.35;;;;;;;;;;10460411;28;20032;-76
2023/09/25 20:05:21;;;;;;;12.95;5.63;;;;;;;;;;10470097;28;20024;-83
2023/09/25 20:10:22;;;;;;;11.02;5.95;;;;;;;;;;10462419;28;20399;-79
2023/09/25 20:15:22;;;;;;;13.98;5.20;;;;;;;;;;10480209;28;20539;-84
2023/09/25 20:20:22;;;;;;;10.18;5.78;;;;;;;;;;10467005;28;20214;-81
2023/09/25 20:25:23;;;;;;;8.27;5.78;;;;;;;;;;10461309;28;20495;-79
2023/09/25 20:30:23;;;;;;;12.52;6.68;;;;;;;;;;10454194;28;20020;-80
2023/09/25 20:35:23;;;;;;;13.15;5.85;;;;;;;;;;10457423;28;20024;-82
2023/09/25 20:40:25;;;;;;;9.27;5.07;;;;;;;;;;10466152;28;20041;-78
2023/09/25 20:45:26;;;;;;;12.40;5.30;;;;;;;;;;10452799;28;20108;-78
2023/09/25 20:50:27;;;;;;;9.55;6.07;;;;;;;;;;10449900;28;20032;-78
2023/09/25 20:55:28;;;;;;;16.30;5.75;;;;;;;;;;10471738;28;20129;-81
2023/09/25 21:00:30;;;;;;;10.10;5.00;;;;;;;;;;10478114;28;20084;-75
2023/09/25 21:05:31;;;;;;;19.17;6.95;;;;;;;;;;10464272;28;20036;-81
2023/09/25 21:10:31;;;;;;;8.95;5.35;;;;;;;;;;10475326;28;20484;-82
2023/09/25 21:15:35;;;;;;;15.70;6.03;;;;;;;;;;10467623;28;20024;-83
2023/09/25 21:20:35;;;;;;;12.52;5.38;;;;;;;;;;10469341;28;20024;-75
2023/09/25 21:25:36;;;;;;;7.80;4.83;;;;;;;;;;10459271;28;20032;-78
2023/09/25 21:30:40;;;;;;;10.23;5.00;;;;;;;;;;10482418;28;20450;-80
2023/09/25 21:35:40;;;;;;;17.80;5.38;;;;;;;;;;10469640;28;20641;-81
2023/09/25 21:40:41;;;;;;;8.57;5.57;;;;;;;;;;10442372;28;20035;-83
2023/09/25 21:45:41;;;;;;;17.90;6.03;;;;;;;;;;10474147;28;20035;-79
2023/09/25 21:50:42;;;;;;;9.80;5.30;;;;;;;;;;10467945;28;20080;-77
2023/09/25 21:55:42;;;;;;;13.23;6.15;;;;;;;;;;10473538;28;20048;-79
2023/09/25 22:00:42;;;;;;;15.70;6.97;;;;;;;;;;10454251;28;20035;-81
2023/09/25 22:05:43;;;;;;;12.10;8.43;;;;;;;;;;10458173;28;20033;-81
2023/09/25 22:10:44;;;;;;;13.45;6.13;;;;;;;;;;10476177;28;20035;-77
2023/09/25 22:15:45;;;;;;;15.25;5.50;;;;;;;;;;10497535;22;20052;-75
2023/09/25 22:20:46;;;;;;;11.05;5.13;;;;;;;;;;10509872;28;20314;-73
2023/09/25 22:25:47;;;;;;;11.18;7.13;;;;;;;;;;10519733;28;20012;-73
2023/09/25 22:30:47;;;;;;;14.23;6.75;;;;;;;;;;10521397;28;20272;-74
2023/09/25 22:35:47;;;;;;;17.33;7.60;;;;;;;;;;10510984;28;20036;-74
2023/09/25 22:40:47;;;;;;;20.70;7.28;;;;;;;;;;10500594;28;20082;-74
2023/09/25 22:45:48;;;;;;;15.60;7.57;;;;;;;;;;10514221;28;20301;-73
2023/09/25 22:50:48;;;;;;;15.63;5.73;;;;;;;;;;10518415;28;20012;-74
2023/09/25 22:55:48;;;;;;;11.93;5.53;;;;;;;;;;10523995;28;20004;-73
2023/09/25 23:00:50;;;;;;;15.03;6.10;;;;;;;;;;10511171;28;20227;-74
2023/09/25 23:05:50;;;;;;;19.48;5.78;;;;;;;;;;10518831;28;20008;-73
2023/09/25 23:10:50;;;;;;;13.07;5.77;;;;;;;;;;10516936;28;20016;-73
2023/09/25 23:15:51;;;;;;;20.40;7.10;;;;;;;;;;10514732;28;20041;-73
2023/09/25 23:20:51;;;;;;;11.70;5.43;;;;;;;;;;10518891;28;20028;-73
2023/09/25 23:25:51;;;;;;;17.73;6.10;;;;;;;;;;10488844;28;20425;-74
2023/09/25 23:30:51;;;;;;;9.40;5.53;;;;;;;;;;10523377;28;20008;-73
2023/09/25 23:35:53;;;;;;;13.98;6.50;;;;;;;;;;10517564;28;20026;-74
2023/09/25 23:40:53;;;;;;;16.80;5.25;;;;;;;;;;10519839;28;20023;-74
2023/09/25 23:45:54;;;;;;;14.90;6.47;;;;;;;;;;10512819;28;20074;-73
2023/09/25 23:50:54;;;;;;;15.70;5.60;;;;;;;;;;10519007;28;20016;-73
2023/09/25 23:56:04;;;;;;;11.90;5.75;;;;;;;;;;10500798;28;20307;-73
